Time;durP1;ratioP1;P1;durP2;ratioP2;P2;SDS_P1;SDS_P2;PMS_P1;PMS_P2;Temp;Humidity;BMP_temperature;BMP_pressure;BME280_temperature;BME280_humidity;BME280_pressure;Samples;Min_cycle;Max_cycle;Signal;HPM_P1;HPM_P2
2021/03/17 00:00:36;;;;;;;8.20;5.17;;;;;;;4.66;56.71;101803.91;5080883;28;20419;-67
2021/03/17 00:03:02;;;;;;;7.37;4.10;;;;;;;4.70;56.50;101800.66;5080602;28;20842;-69
2021/03/17 00:05:30;;;;;;;7.50;4.03;;;;;;;4.62;56.28;101806.25;5080681;28;20458;-67
2021/03/17 00:07:56;;;;;;;8.37;4.40;;;;;;;4.55;56.65;101799.91;5080832;28;20223;-68
2021/03/17 00:10:26;;;;;;;7.17;4.47;;;;;;;4.57;56.76;101808.59;5079478;28;20445;-67
2021/03/17 00:12:55;;;;;;;6.80;4.57;;;;;;;4.72;56.50;101800.72;5080279;28;20824;-67
2021/03/17 00:15:23;;;;;;;8.60;4.77;;;;;;;4.78;56.54;101806.22;5080951;28;20748;-66
2021/03/17 00:17:48;;;;;;;10.30;4.67;;;;;;;4.93;56.01;101805.22;5080016;28;20506;-65
2021/03/17 00:20:14;;;;;;;8.00;5.70;;;;;;;4.97;56.48;101805.44;5079952;28;20438;-68
2021/03/17 00:22:39;;;;;;;12.40;5.30;;;;;;;5.25;55.57;101814.56;5080675;28;20184;-65
2021/03/17 00:25:06;;;;;;;7.90;4.73;;;;;;;4.88;56.20;101816.22;5079413;28;20676;-65
2021/03/17 00:27:31;;;;;;;10.63;4.60;;;;;;;4.87;56.33;101816.13;5079796;28;20220;-66
2021/03/17 00:29:57;;;;;;;8.47;4.73;;;;;;;4.39;58.16;101818.88;5080710;28;20465;-67
2021/03/17 00:32:22;;;;;;;6.70;4.93;;;;;;;4.74;57.23;101817.22;5080044;28;20195;-67
2021/03/17 00:34:47;;;;;;;9.33;4.73;;;;;;;4.40;57.69;101815.50;5079927;28;20236;-65
2021/03/17 00:37:13;;;;;;;7.83;4.70;;;;;;;4.38;57.83;101811.91;5080320;28;20177;-66
2021/03/17 00:39:38;;;;;;;9.83;4.93;;;;;;;5.02;56.82;101810.84;5079962;28;20200;-65
2021/03/17 00:42:03;;;;;;;10.57;6.20;;;;;;;4.66;57.53;101809.06;5079820;28;20173;-66
2021/03/17 00:44:29;;;;;;;5.67;4.50;;;;;;;4.70;58.31;101811.00;5080376;28;20176;-66
2021/03/17 00:46:54;;;;;;;8.77;4.77;;;;;;;4.70;58.08;101816.16;5079865;28;20264;-66
2021/03/17 00:49:19;;;;;;;8.93;4.03;;;;;;;4.52;57.60;101810.09;5079468;28;20226;-68
2021/03/17 00:51:45;;;;;;;7.77;4.87;;;;;;;4.87;57.17;101808.38;5080211;28;20193;-68
2021/03/17 00:54:11;;;;;;;7.23;4.60;;;;;;;4.78;56.85;101805.34;5080015;28;20181;-67
2021/03/17 00:56:36;;;;;;;9.67;4.80;;;;;;;4.60;57.67;101813.94;5079498;28;20205;-67
2021/03/17 00:59:01;;;;;;;8.70;4.83;;;;;;;4.93;57.11;101819.03;5079875;28;20415;-67
2021/03/17 01:01:26;;;;;;;12.73;8.50;;;;;;;4.72;57.33;101814.56;5079663;28;20210;-67
2021/03/17 01:03:52;;;;;;;11.43;6.10;;;;;;;4.71;58.75;101819.66;5079370;28;20200;-66
2021/03/17 01:06:17;;;;;;;12.90;5.57;;;;;;;5.10;57.18;101816.38;5079746;28;20515;-67
2021/03/17 01:08:43;;;;;;;10.20;4.27;;;;;;;4.91;57.41;101810.28;5079650;28;20211;-68
2021/03/17 01:11:08;;;;;;;9.13;4.83;;;;;;;4.66;58.43;101813.34;5079282;28;20187;-68
2021/03/17 01:13:34;;;;;;;11.40;6.43;;;;;;;4.71;58.19;101820.53;5079650;28;20201;-68
2021/03/17 01:15:59;;;;;;;7.13;4.03;;;;;;;4.45;59.04;101821.78;5079144;28;20544;-68
2021/03/17 01:18:24;;;;;;;8.17;3.27;;;;;;;4.64;58.22;101814.97;5079124;28;20454;-68
2021/03/17 01:20:50;;;;;;;6.93;3.43;;;;;;;4.42;58.08;101808.69;5079557;28;20526;-67
2021/03/17 01:23:16;;;;;;;8.77;3.97;;;;;;;4.28;58.98;101820.00;5079242;28;20187;-72
2021/03/17 01:25:44;;;;;;;7.03;3.87;;;;;;;4.44;59.38;101816.50;5078763;28;20216;-67
2021/03/17 01:28:10;;;;;;;6.70;5.50;;;;;;;4.46;58.85;101815.78;5079410;28;20476;-66
2021/03/17 01:30:45;;;;;;;10.30;4.20;;;;;;;4.33;58.47;101819.44;5077938;28;20419;-67
2021/03/17 01:33:11;;;;;;;10.03;4.60;;;;;;;4.47;59.28;101822.72;5078623;28;20471;-66
2021/03/17 01:35:37;;;;;;;8.60;4.37;;;;;;;4.26;59.16;101822.47;5078836;28;20549;-66
2021/03/17 01:38:03;;;;;;;10.00;4.57;;;;;;;3.88;59.60;101823.91;5085136;28;20451;-66
2021/03/17 01:40:29;;;;;;;16.47;5.57;;;;;;;4.29;58.71;101820.09;5079236;28;20710;-66
2021/03/17 01:42:55;;;;;;;6.93;4.37;;;;;;;4.34;58.46;101812.56;5078024;28;20419;-65
2021/03/17 01:45:22;;;;;;;9.33;4.93;;;;;;;4.33;58.75;101821.13;5079063;28;20661;-66
2021/03/17 01:47:48;;;;;;;14.37;7.90;;;;;;;4.58;58.74;101823.28;5079140;28;20716;-66
2021/03/17 01:50:23;;;;;;;8.43;5.00;;;;;;;4.49;58.96;101823.72;5078654;28;20478;-66
2021/03/17 01:52:49;;;;;;;8.80;5.77;;;;;;;4.51;58.28;101819.50;5078409;28;20418;-66
2021/03/17 01:55:15;;;;;;;11.00;6.70;;;;;;;4.32;59.87;101815.06;5077854;28;20469;-65
2021/03/17 01:57:41;;;;;;;8.43;5.90;;;;;;;4.49;58.13;101818.56;5078474;28;20442;-66
2021/03/17 02:00:09;;;;;;;13.27;6.07;;;;;;;4.52;58.55;101815.25;5078216;28;20458;-65
2021/03/17 02:02:42;;;;;;;14.73;7.97;;;;;;;4.66;57.91;101824.56;5078341;28;20169;-66
2021/03/17 02:05:10;;;;;;;11.17;6.37;;;;;;;4.51;58.24;101818.63;5077762;28;20437;-65
2021/03/17 02:07:36;;;;;;;9.40;6.80;;;;;;;4.51;58.50;101818.63;5078417;28;20728;-67
2021/03/17 02:10:08;;;;;;;7.43;5.00;;;;;;;4.54;58.83;101814.47;5078359;28;20418;-71
2021/03/17 02:12:53;;;;;;;8.10;4.20;;;;;;;4.14;59.58;101821.84;5078037;28;20181;-66
2021/03/17 02:15:32;;;;;;;8.73;4.90;;;;;;;4.21;59.10;101813.63;5077465;28;20466;-67
2021/03/17 02:18:09;;;;;;;12.30;4.37;;;;;;;4.50;59.56;101811.69;5077552;28;20448;-67
2021/03/17 02:20:56;;;;;;;5.60;3.30;;;;;;;11.53;63.95;101790.09;5049400;28;20534;-66
2021/03/17 02:23:45;;;;;;;5.63;3.67;;;;;;;13.45;45.19;101776.28;5057891;28;20404;-65
2021/03/17 02:26:43;;;;;;;6.77;3.50;;;;;;;9.51;42.48;101786.50;5057733;28;20468;-70
2021/03/17 02:29:18;;;;;;;7.03;3.40;;;;;;;7.23;49.86;101789.66;5057485;28;20427;-68
2021/03/17 02:31:49;;;;;;;10.00;4.83;;;;;;;6.44;51.51;101796.75;5057959;28;20412;-67
2021/03/17 02:34:26;;;;;;;8.87;5.03;;;;;;;5.79;53.57;101805.88;5057415;28;20416;-67
2021/03/17 02:37:02;;;;;;;5.90;4.00;;;;;;;5.39;54.86;101805.75;5057506;28;20458;-68
2021/03/17 02:39:37;;;;;;;9.27;5.43;;;;;;;4.80;56.58;101802.00;5057296;28;20527;-68
2021/03/17 02:42:11;;;;;;;11.40;5.07;;;;;;;4.84;56.99;101803.06;5059026;28;20485;-68
2021/03/17 02:44:47;;;;;;;9.40;4.33;;;;;;;4.67;57.39;101804.81;5061491;28;20457;-68
2021/03/17 02:47:14;;;;;;;8.87;5.07;;;;;;;4.49;57.09;101797.91;5061516;28;20430;-68
2021/03/17 02:49:41;;;;;;;7.13;4.23;;;;;;;4.44;58.22;101803.59;5061920;28;20423;-67
2021/03/17 02:52:07;;;;;;;6.40;4.10;;;;;;;4.45;58.55;101802.81;5061200;28;20682;-68
2021/03/17 02:54:33;;;;;;;8.03;4.00;;;;;;;4.28;58.64;101805.41;5062425;28;20412;-68
2021/03/17 02:57:17;;;;;;;7.27;4.63;;;;;;;4.26;58.66;101796.66;5061156;28;20419;-68
2021/03/17 02:59:42;;;;;;;65.90;30.63;;;;;;;3.98;61.08;101792.66;5061162;28;20415;-67
2021/03/17 03:02:11;;;;;;;9.60;4.50;;;;;;;4.08;60.07;101795.72;5060953;28;20424;-69
2021/03/17 03:04:37;;;;;;;9.40;4.60;;;;;;;4.12;59.60;101787.34;5061743;28;20188;-67
2021/03/17 03:07:02;;;;;;;7.27;4.30;;;;;;;4.04;59.74;101785.22;5061699;28;20487;-67
2021/03/17 03:09:28;;;;;;;10.53;4.43;;;;;;;4.01;60.30;101792.81;5061078;28;20491;-67
2021/03/17 03:11:55;;;;;;;13.73;4.87;;;;;;;3.79;61.21;101800.19;5061633;28;20250;-68
2021/03/17 03:14:22;;;;;;;6.40;4.13;;;;;;;3.98;61.10;101799.50;5061338;28;20173;-68
2021/03/17 03:16:48;;;;;;;10.33;4.60;;;;;;;4.32;59.69;101799.59;5061575;28;20420;-67
2021/03/17 03:19:15;;;;;;;7.47;4.97;;;;;;;4.35;59.72;101797.16;5060708;28;20477;-69
2021/03/17 03:21:41;;;;;;;6.10;4.00;;;;;;;4.14;60.27;101807.25;5061914;28;20498;-69
2021/03/17 03:24:07;;;;;;;6.47;3.73;;;;;;;4.15;60.08;101813.28;5061369;28;20468;-67
2021/03/17 03:26:33;;;;;;;8.00;4.00;;;;;;;4.01;60.70;101808.28;5060717;28;20217;-67
2021/03/17 03:28:58;;;;;;;6.77;4.30;;;;;;;4.08;60.38;101806.03;5061068;28;20411;-67
2021/03/17 03:31:24;;;;;;;8.67;4.03;;;;;;;4.07;60.95;101809.44;5060445;28;20558;-68
2021/03/17 03:33:49;;;;;;;10.83;4.33;;;;;;;4.14;61.07;101806.34;5062039;28;20177;-68
2021/03/17 03:36:15;;;;;;;7.37;3.93;;;;;;;3.86;60.83;101810.94;5067495;28;20193;-69
2021/03/17 03:38:41;;;;;;;6.90;4.13;;;;;;;3.64;61.58;101818.28;5061732;28;20192;-67
2021/03/17 03:41:06;;;;;;;8.13;4.00;;;;;;;3.82;61.93;101821.00;5060464;28;20542;-68
2021/03/17 03:43:32;;;;;;;6.83;3.97;;;;;;;3.84;61.59;101814.22;5061588;28;20166;-69
2021/03/17 03:45:57;;;;;;;6.93;4.20;;;;;;;3.80;61.17;101814.88;5061509;28;20173;-67
2021/03/17 03:48:22;;;;;;;8.30;4.50;;;;;;;3.77;61.96;101810.44;5061375;28;20487;-67
2021/03/17 03:50:49;;;;;;;10.73;4.30;;;;;;;3.93;61.36;101814.72;5061430;28;20166;-68
2021/03/17 03:53:36;;;;;;;9.93;4.40;;;;;;;3.98;60.77;101809.84;5059055;28;20541;-67
2021/03/17 03:56:06;;;;;;;6.33;4.30;;;;;;;3.62;62.44;101820.78;5060166;28;20791;-68
2021/03/17 03:58:38;;;;;;;11.33;5.93;;;;;;;3.78;61.31;101817.38;5060901;28;20425;-68
2021/03/17 04:01:12;;;;;;;9.20;4.10;;;;;;;3.70;61.66;101811.78;5059965;28;20506;-68
2021/03/17 04:03:44;;;;;;;15.63;5.00;;;;;;;3.60;62.84;101822.41;5060806;28;20407;-68
2021/03/17 04:06:11;;;;;;;8.03;4.30;;;;;;;4.01;60.96;101817.72;5059919;28;20825;-68
2021/03/17 04:08:40;;;;;;;6.90;4.13;;;;;;;3.76;62.12;101825.81;5060607;28;20412;-68
2021/03/17 04:11:06;;;;;;;12.17;4.07;;;;;;;3.78;61.73;101822.53;5059830;28;20777;-69
2021/03/17 04:13:32;;;;;;;7.93;4.70;;;;;;;3.95;61.51;101826.03;5060327;28;20408;-68
2021/03/17 04:15:58;;;;;;;6.90;4.30;;;;;;;3.80;62.10;101831.25;5060011;28;20456;-68
2021/03/17 04:18:32;;;;;;;6.43;4.20;;;;;;;4.05;61.26;101825.69;5060445;28;20488;-68
2021/03/17 04:21:02;;;;;;;6.50;4.50;;;;;;;4.00;60.74;101829.72;5059850;28;20579;-68
2021/03/17 04:23:27;;;;;;;10.70;4.03;;;;;;;3.90;61.33;101835.22;5042944;28;20566;-67
2021/03/17 04:25:54;;;;;;;10.60;4.70;;;;;;;3.77;61.64;101836.22;5059504;28;20473;-67
2021/03/17 04:28:22;;;;;;;12.07;4.77;;;;;;;3.85;62.20;101836.66;5063308;28;20555;-68
2021/03/17 04:30:48;;;;;;;8.03;4.57;;;;;;;3.88;61.11;101836.81;5059532;28;20447;-67
2021/03/17 04:33:14;;;;;;;13.70;5.00;;;;;;;3.82;61.60;101841.66;5060036;28;20447;-67
2021/03/17 04:35:41;;;;;;;7.00;4.50;;;;;;;4.07;61.73;101832.66;5060596;28;20186;-68
2021/03/17 04:38:07;;;;;;;16.53;5.40;;;;;;;4.05;61.37;101837.72;5059359;28;20420;-67
2021/03/17 04:40:33;;;;;;;7.83;4.97;;;;;;;3.65;62.29;101836.44;5059855;28;20703;-67
2021/03/17 04:42:58;;;;;;;7.43;4.63;;;;;;;3.87;61.52;101840.22;5059442;28;20200;-68
2021/03/17 04:45:24;;;;;;;9.60;5.27;;;;;;;3.92;62.00;101841.31;5059239;28;20412;-67
2021/03/17 04:47:52;;;;;;;10.73;5.10;;;;;;;3.97;61.08;101842.47;5059928;28;20527;-67
2021/03/17 04:50:18;;;;;;;7.63;4.90;;;;;;;4.11;61.29;101847.50;5059560;28;20432;-68
2021/03/17 04:52:44;;;;;;;13.90;4.60;;;;;;;3.81;61.51;101847.59;5059505;28;20864;-67
2021/03/17 04:55:11;;;;;;;8.43;5.10;;;;;;;4.05;60.72;101845.47;5058680;28;20471;-68
2021/03/17 04:57:38;;;;;;;12.00;5.10;;;;;;;3.66;61.96;101847.63;5059399;28;20408;-67
2021/03/17 05:00:07;;;;;;;7.70;4.60;;;;;;;3.42;63.71;101847.16;5059113;28;20418;-68
2021/03/17 05:02:36;;;;;;;7.50;4.17;;;;;;;3.32;63.19;101845.75;5042210;28;20436;-68
2021/03/17 05:05:02;;;;;;;9.27;5.00;;;;;;;3.22;63.55;101844.34;5060009;28;20417;-68
2021/03/17 05:07:27;;;;;;;7.67;4.30;;;;;;;3.35;62.94;101840.75;5059570;28;20493;-67
2021/03/17 05:09:53;;;;;;;7.53;4.10;;;;;;;3.54;62.83;101842.69;5059517;28;20438;-68
2021/03/17 05:12:19;;;;;;;55.93;28.90;;;;;;;3.36;64.75;101847.69;5059078;28;20169;-67
2021/03/17 05:14:45;;;;;;;20.27;9.07;;;;;;;3.77;62.79;101848.22;5058618;28;20465;-68
2021/03/17 05:17:12;;;;;;;11.10;7.20;;;;;;;3.50;63.12;101853.63;5058512;28;20415;-67
2021/03/17 05:19:39;;;;;;;17.03;8.53;;;;;;;3.56;63.03;101850.50;5059239;28;20420;-69
2021/03/17 05:22:05;;;;;;;10.60;4.57;;;;;;;3.68;62.47;101846.03;5058542;28;20432;-67
2021/03/17 05:24:32;;;;;;;7.23;4.20;;;;;;;3.66;62.37;101853.66;5059077;28;20427;-68
2021/03/17 05:26:59;;;;;;;9.40;4.90;;;;;;;3.52;62.76;101859.78;5059371;28;20729;-69
2021/03/17 05:29:25;;;;;;;8.90;4.63;;;;;;;3.77;62.26;101854.28;5059827;28;20789;-67
2021/03/17 05:31:52;;;;;;;11.90;5.00;;;;;;;3.71;62.96;101854.81;5063956;28;20507;-67
2021/03/17 05:34:17;;;;;;;9.80;5.90;;;;;;;3.88;62.14;101860.03;5067024;28;20427;-67
2021/03/17 05:36:43;;;;;;;8.30;4.80;;;;;;;3.80;62.63;101862.19;5063604;28;20463;-67
2021/03/17 05:39:08;;;;;;;11.43;5.37;;;;;;;3.59;63.13;101861.88;5064109;28;20193;-67
2021/03/17 05:41:34;;;;;;;7.37;4.53;;;;;;;3.54;62.91;101868.47;5065581;28;20281;-68
2021/03/17 05:43:59;;;;;;;11.83;5.23;;;;;;;3.73;62.54;101872.09;5066537;28;20180;-68
2021/03/17 05:46:26;;;;;;;13.33;5.20;;;;;;;3.58;62.96;101869.53;5060370;28;20487;-68
2021/03/17 05:48:51;;;;;;;10.00;4.77;;;;;;;3.65;62.32;101874.22;5060450;28;20176;-69
2021/03/17 05:51:17;;;;;;;9.63;4.77;;;;;;;3.65;63.08;101876.81;5060591;28;20416;-69
2021/03/17 05:53:43;;;;;;;9.03;4.70;;;;;;;3.82;62.76;101875.19;5063281;28;20192;-69
2021/03/17 05:56:09;;;;;;;6.37;4.57;;;;;;;4.28;60.93;101877.69;5065283;28;20205;-67
2021/03/17 05:58:34;;;;;;;6.50;4.43;;;;;;;3.77;62.07;101886.94;5065326;28;20431;-68
2021/03/17 06:01:00;;;;;;;10.07;4.70;;;;;;;3.87;62.04;101878.91;5067302;28;20203;-67
2021/03/17 06:03:25;;;;;;;6.80;3.93;;;;;;;3.85;62.59;101883.94;5067068;28;20165;-68
2021/03/17 06:05:51;;;;;;;12.10;5.63;;;;;;;4.09;61.33;101877.50;5060722;28;20235;-67
2021/03/17 06:08:24;;;;;;;10.50;5.07;;;;;;;4.36;60.71;101881.56;5059515;28;21007;-68
2021/03/17 06:10:51;;;;;;;9.93;5.10;;;;;;;3.76;62.87;101891.22;5058791;28;20165;-67
2021/03/17 06:13:16;;;;;;;6.80;4.63;;;;;;;4.00;62.58;101881.31;5058691;28;20466;-68
2021/03/17 06:15:43;;;;;;;6.50;4.10;;;;;;;4.10;61.09;101887.91;5058121;28;20456;-69
2021/03/17 06:18:21;;;;;;;9.67;4.13;;;;;;;4.32;60.61;101882.19;5058516;28;20174;-68
2021/03/17 06:20:47;;;;;;;15.33;4.97;;;;;;;4.30;60.70;101881.25;5058621;28;20511;-68
2021/03/17 06:23:13;;;;;;;9.87;4.70;;;;;;;4.44;60.02;101878.47;5059248;28;20737;-71
2021/03/17 06:25:39;;;;;;;8.67;4.90;;;;;;;4.65;59.33;101889.94;5059992;28;20316;-67
2021/03/17 06:28:06;;;;;;;6.20;4.30;;;;;;;4.59;59.49;101884.47;5059933;28;20719;-69
2021/03/17 06:30:32;;;;;;;11.00;5.10;;;;;;;5.40;57.18;101887.72;5060586;28;20503;-70
2021/03/17 06:32:57;;;;;;;15.33;5.17;;;;;;;7.07;51.73;101872.00;5059483;28;20494;-67
2021/03/17 06:35:24;;;;;;;14.73;4.67;;;;;;;8.49;48.24;101868.91;5060188;28;20585;-69
2021/03/17 06:37:50;;;;;;;8.50;4.30;;;;;;;9.00;46.33;101857.69;5059497;28;20223;-67
2021/03/17 06:40:24;;;;;;;9.37;4.03;;;;;;;8.49;47.13;101865.44;5059110;28;20576;-67
2021/03/17 06:42:50;;;;;;;7.33;4.00;;;;;;;8.74;46.95;101868.06;5058784;28;20415;-68
2021/03/17 06:45:29;;;;;;;11.73;4.37;;;;;;;8.90;47.33;101871.19;5059164;28;20412;-67
2021/03/17 06:47:54;;;;;;;5.90;4.37;;;;;;;7.38;50.28;101880.19;5059041;28;20695;-67
2021/03/17 06:50:27;;;;;;;8.47;4.70;;;;;;;6.67;52.47;101888.44;5059175;28;20407;-67
2021/03/17 06:52:52;;;;;;;7.27;4.80;;;;;;;7.10;52.32;101885.94;5059787;28;20166;-68
2021/03/17 06:55:20;;;;;;;13.27;6.20;;;;;;;7.08;51.95;101893.66;5058778;28;20460;-71
2021/03/17 06:57:50;;;;;;;6.90;5.67;;;;;;;6.68;53.26;101879.81;5058289;28;20434;-71
2021/03/17 07:00:17;;;;;;;10.40;5.33;;;;;;;6.99;53.21;101880.28;5058257;28;20412;-71
2021/03/17 07:03:10;;;;;;;12.87;7.07;;;;;;;13.00;51.45;101859.31;5057827;28;20415;-67
2021/03/17 07:05:44;;;;;;;11.23;6.33;;;;;;;15.38;41.04;101848.34;5057363;28;20408;-69
2021/03/17 07:08:14;;;;;;;10.13;5.90;;;;;;;14.47;38.94;101859.72;5057752;28;20404;-67
2021/03/17 07:10:41;;;;;;;12.40;6.83;;;;;;;14.31;38.64;101856.06;5057651;28;20386;-67
2021/03/17 07:13:08;;;;;;;9.30;6.30;;;;;;;14.58;37.20;101865.09;5057633;28;20408;-68
2021/03/17 07:15:35;;;;;;;9.00;5.23;;;;;;;12.58;38.50;101873.34;5059707;28;20487;-66
2021/03/17 07:18:18;;;;;;;15.63;7.47;;;;;;;9.02;46.59;101895.03;5076595;28;20422;-67
2021/03/17 07:20:48;;;;;;;10.77;6.70;;;;;;;7.59;51.30;101894.03;5077938;28;20469;-68
2021/03/17 07:23:20;;;;;;;12.60;6.83;;;;;;;7.54;52.29;101905.06;5077504;28;20425;-68
2021/03/17 07:26:14;;;;;;;14.97;7.53;;;;;;;6.62;54.71;101900.31;5077588;28;20703;-69
2021/03/17 07:28:51;;;;;;;9.60;6.60;;;;;;;6.79;55.40;101905.34;5080476;28;20418;-68
2021/03/17 07:31:36;;;;;;;9.13;7.20;;;;;;;6.64;56.12;101901.25;5087522;28;20407;-68
2021/03/17 07:34:11;;;;;;;10.50;7.57;;;;;;;6.26;57.16;101908.16;5081538;28;20403;-68
2021/03/17 07:36:56;;;;;;;14.60;8.93;;;;;;;6.78;56.19;101911.34;5080348;28;20883;-68
2021/03/17 07:39:36;;;;;;;10.40;7.60;;;;;;;6.40;56.57;101916.59;5081240;28;20431;-68
2021/03/17 07:42:04;;;;;;;13.23;7.80;;;;;;;6.33;57.32;101915.44;5081053;28;20429;-68
2021/03/17 07:44:30;;;;;;;12.63;8.17;;;;;;;6.18;57.94;101918.19;5080840;28;20450;-68
2021/03/17 07:47:00;;;;;;;12.60;8.33;;;;;;;5.87;59.19;101933.91;5082324;28;20549;-68
2021/03/17 07:49:26;;;;;;;15.20;8.43;;;;;;;6.10;59.03;101929.00;5082250;28;20183;-67
2021/03/17 07:52:02;;;;;;;17.13;8.80;;;;;;;6.13;59.21;101937.81;5082301;28;20434;-65
2021/03/17 07:54:32;;;;;;;10.93;8.20;;;;;;;6.40;58.30;101932.13;5081047;28;20411;-66
2021/03/17 07:57:00;;;;;;;11.60;7.80;;;;;;;6.27;58.90;101937.56;5081252;28;20475;-66
2021/03/17 07:59:26;;;;;;;15.73;9.03;;;;;;;6.20;59.00;101933.81;5079655;28;20521;-65
2021/03/17 08:01:54;;;;;;;15.23;7.90;;;;;;;5.81;60.71;101933.63;5079325;28;20786;-65
2021/03/17 08:04:21;;;;;;;11.93;7.90;;;;;;;6.17;59.32;101942.31;5080786;28;20473;-66
2021/03/17 08:06:47;;;;;;;11.57;8.13;;;;;;;5.92;60.15;101942.78;5080077;28;20693;-66
2021/03/17 08:09:13;;;;;;;13.67;10.00;;;;;;;5.47;62.17;101944.94;5079978;28;20415;-66
2021/03/17 08:11:39;;;;;;;11.17;8.03;;;;;;;5.58;61.06;101938.56;5078314;28;20211;-65
2021/03/17 08:14:05;;;;;;;12.90;8.13;;;;;;;6.20;59.35;101933.81;5080425;28;20419;-65
2021/03/17 08:16:32;;;;;;;13.27;8.10;;;;;;;6.07;61.14;101942.69;5080464;28;20204;-66
2021/03/17 08:18:58;;;;;;;9.40;8.10;;;;;;;6.18;60.42;101946.69;5079720;28;20497;-65
2021/03/17 08:21:45;;;;;;;10.90;8.70;;;;;;;6.17;59.64;101946.56;5080264;28;20415;-66
2021/03/17 08:24:13;;;;;;;11.70;8.73;;;;;;;6.35;59.41;101949.16;5080587;28;20222;-66
2021/03/17 08:26:42;;;;;;;11.73;8.60;;;;;;;6.10;59.04;101954.88;5079557;28;20459;-65
2021/03/17 08:29:13;;;;;;;12.13;8.17;;;;;;;6.56;58.83;101949.25;5080261;28;20843;-65
2021/03/17 08:31:38;;;;;;;14.97;8.70;;;;;;;6.43;58.87;101949.50;5080511;28;20476;-64
2021/03/17 08:34:19;;;;;;;11.03;7.60;;;;;;;5.69;60.50;101959.78;5079801;28;20407;-64
2021/03/17 08:36:45;;;;;;;14.27;8.70;;;;;;;5.89;60.49;101956.47;5080091;28;20196;-64
2021/03/17 08:39:10;;;;;;;14.53;8.20;;;;;;;5.90;61.07;101954.78;5079886;28;20510;-66
2021/03/17 08:41:39;;;;;;;12.27;9.23;;;;;;;6.44;59.67;101949.59;5079430;28;20502;-66
2021/03/17 08:44:18;;;;;;;12.43;8.40;;;;;;;6.26;58.96;101947.00;5079827;28;20187;-66
2021/03/17 08:46:44;;;;;;;14.40;8.40;;;;;;;6.23;59.56;101960.69;5079761;28;20426;-66
2021/03/17 08:49:11;;;;;;;12.33;8.60;;;;;;;6.56;58.95;101954.44;5078968;28;20415;-65
2021/03/17 08:51:46;;;;;;;16.83;8.17;;;;;;;6.90;58.06;101951.66;5079597;28;20411;-65
2021/03/17 08:54:32;;;;;;;13.40;9.70;;;;;;;6.58;58.93;101950.22;5079546;28;20417;-66
2021/03/17 08:57:02;;;;;;;11.57;9.00;;;;;;;6.91;58.25;101953.44;5079447;28;20512;-65
2021/03/17 08:59:40;;;;;;;11.20;8.37;;;;;;;7.18;57.20;101954.56;5079680;28;20862;-65
2021/03/17 09:02:25;;;;;;;10.00;8.43;;;;;;;7.04;57.14;101964.34;5078631;28;20430;-65
2021/03/17 09:04:54;;;;;;;13.03;8.60;;;;;;;7.62;55.80;101958.16;5080991;28;20438;-65
2021/03/17 09:07:59;;;;;;;12.83;8.07;;;;;;;7.60;55.76;101959.78;5079603;28;20425;-68
2021/03/17 09:10:39;;;;;;;12.90;8.40;;;;;;;7.62;55.77;101965.94;5078774;28;20423;-69
2021/03/17 09:13:05;;;;;;;16.73;8.80;;;;;;;8.08;54.84;101978.19;5079435;28;20419;-64
2021/03/17 09:15:50;;;;;;;13.93;8.70;;;;;;;7.79;56.00;101974.41;5079243;28;20516;-66
2021/03/17 09:18:19;;;;;;;17.77;8.80;;;;;;;6.77;58.75;101979.56;5079346;28;20255;-65
2021/03/17 09:20:48;;;;;;;11.00;8.00;;;;;;;7.48;57.83;101980.94;5079070;28;20455;-66
2021/03/17 09:23:16;;;;;;;13.57;9.10;;;;;;;7.36;57.11;101983.00;5079241;28;20502;-66
2021/03/17 09:25:46;;;;;;;10.10;8.90;;;;;;;7.52;56.60;101985.44;5078614;28;20463;-66
2021/03/17 09:28:34;;;;;;;12.13;9.70;;;;;;;7.87;55.51;101979.91;5084581;28;20422;-66
2021/03/17 09:31:05;;;;;;;13.33;9.33;;;;;;;6.98;57.62;101985.72;5079575;28;20828;-67
2021/03/17 09:33:37;;;;;;;13.70;8.93;;;;;;;7.01;58.19;101990.13;5078985;28;20433;-65
2021/03/17 09:36:14;;;;;;;12.83;8.87;;;;;;;6.71;59.90;101998.28;5079169;28;20458;-65
2021/03/17 09:38:47;;;;;;;16.63;9.50;;;;;;;6.43;60.72;101997.03;5078362;28;20442;-63
2021/03/17 09:41:27;;;;;;;11.00;8.90;;;;;;;7.09;59.94;101999.16;5078255;28;20415;-66
2021/03/17 09:44:03;;;;;;;12.03;8.63;;;;;;;8.35;55.41;101989.59;5078621;28;20411;-65
2021/03/17 09:46:31;;;;;;;16.23;9.20;;;;;;;8.64;54.46;101993.34;5078063;28;20420;-67
2021/03/17 09:49:17;;;;;;;12.23;8.80;;;;;;;8.90;53.98;101996.94;5078657;28;20422;-65
2021/03/17 09:51:54;;;;;;;14.77;8.57;;;;;;;10.58;48.85;101980.78;5078378;28;20664;-66
2021/03/17 09:54:25;;;;;;;14.23;8.27;;;;;;;10.97;47.42;101978.38;5079733;28;20491;-66
2021/03/17 09:56:58;;;;;;;11.33;7.57;;;;;;;13.01;42.41;101975.38;5079710;28;20783;-67
2021/03/17 09:59:32;;;;;;;9.40;7.60;;;;;;;12.50;43.50;101987.41;5078395;28;20410;-67
2021/03/17 10:02:12;;;;;;;9.97;7.83;;;;;;;13.07;41.87;101986.84;5078785;28;20860;-68
2021/03/17 10:04:43;;;;;;;12.87;7.63;;;;;;;13.70;40.09;101987.13;5078455;28;20390;-69
2021/03/17 10:07:10;;;;;;;9.50;7.23;;;;;;;13.95;39.27;101990.13;5078702;28;20476;-67
2021/03/17 10:09:36;;;;;;;12.30;7.20;;;;;;;14.87;37.52;101980.09;5078413;28;20386;-68
2021/03/17 10:12:06;;;;;;;9.17;8.23;;;;;;;14.01;39.59;101982.38;5077983;28;20396;-69
2021/03/17 10:14:32;;;;;;;8.40;7.60;;;;;;;14.46;39.12;101981.31;5078529;28;20169;-68
2021/03/17 10:17:00;;;;;;;16.60;10.40;;;;;;;13.81;40.53;101980.34;5078245;28;20454;-67
2021/03/17 10:19:25;;;;;;;8.90;7.10;;;;;;;14.36;38.32;101979.41;5078352;28;20582;-67
2021/03/17 10:21:53;;;;;;;11.73;8.70;;;;;;;13.50;39.65;101988.53;5078598;28;20506;-70
2021/03/17 10:24:48;;;;;;;10.60;7.47;;;;;;;13.35;40.98;101989.97;5078137;28;20183;-69
2021/03/17 10:27:16;;;;;;;9.47;8.47;;;;;;;13.13;41.34;101996.56;5077935;28;20735;-68
2021/03/17 10:29:43;;;;;;;9.43;7.93;;;;;;;13.79;39.31;101994.28;5077372;28;20393;-68
2021/03/17 10:32:10;;;;;;;7.93;7.13;;;;;;;14.08;38.37;101999.97;5077889;28;20408;-67
2021/03/17 10:34:36;;;;;;;14.30;8.27;;;;;;;13.44;40.40;101998.03;5077531;28;20681;-67
2021/03/17 10:37:02;;;;;;;9.13;7.60;;;;;;;14.53;39.01;101989.25;5077974;28;20386;-69
2021/03/17 10:39:31;;;;;;;12.83;7.97;;;;;;;14.37;38.75;101994.28;5078058;28;20521;-68
2021/03/17 10:41:57;;;;;;;11.67;7.57;;;;;;;14.18;37.85;101992.25;5078191;28;20394;-69
2021/03/17 10:44:27;;;;;;;8.33;6.87;;;;;;;15.02;37.63;101992.50;5078210;28;20419;-66
2021/03/17 10:47:08;;;;;;;12.03;8.40;;;;;;;14.40;37.84;101990.81;5078032;28;20415;-66
2021/03/17 10:49:43;;;;;;;7.50;6.80;;;;;;;12.02;43.57;101997.69;5077465;28;20430;-67
2021/03/17 10:52:09;;;;;;;8.83;7.77;;;;;;;13.17;40.99;101995.78;5077854;28;20665;-68
2021/03/17 10:54:42;;;;;;;9.53;7.80;;;;;;;12.38;43.01;101998.47;5078761;28;20411;-70
2021/03/17 10:57:08;;;;;;;11.90;8.30;;;;;;;13.13;41.05;101997.44;5077943;28;20234;-67
2021/03/17 10:59:37;;;;;;;9.50;7.53;;;;;;;13.27;40.71;101994.19;5077917;28;20411;-67
2021/03/17 11:02:26;;;;;;;10.47;7.50;;;;;;;14.86;38.56;101993.19;5077168;28;20394;-68
2021/03/17 11:05:13;;;;;;;11.17;7.30;;;;;;;14.03;39.32;101987.66;5081810;28;20477;-67
2021/03/17 11:08:08;;;;;;;10.63;7.07;;;;;;;14.47;37.75;101985.66;5081794;28;20401;-67
2021/03/17 11:10:33;;;;;;;10.37;6.97;;;;;;;15.15;36.79;101981.28;5081769;28;20501;-67
2021/03/17 11:13:24;;;;;;;10.43;7.50;;;;;;;15.17;37.14;101981.28;5081618;28;20721;-66
2021/03/17 11:15:59;;;;;;;12.50;7.50;;;;;;;15.49;36.30;101991.22;5081756;28;20204;-70
2021/03/17 11:18:25;;;;;;;11.93;7.83;;;;;;;16.02;35.78;101983.78;5081607;28;20826;-69
2021/03/17 11:20:52;;;;;;;9.43;7.63;;;;;;;14.40;38.59;101980.34;5081459;28;20496;-72
2021/03/17 11:23:19;;;;;;;8.60;7.27;;;;;;;13.59;40.02;101981.72;5081661;28;20673;-71
2021/03/17 11:25:44;;;;;;;9.30;7.33;;;;;;;14.56;37.80;101981.41;5083276;28;20445;-70
2021/03/17 11:28:18;;;;;;;9.33;8.37;;;;;;;14.35;38.48;101988.13;5086846;28;20800;-70
2021/03/17 11:30:48;;;;;;;8.50;7.60;;;;;;;14.09;39.17;101986.00;5083674;28;20165;-71
2021/03/17 11:33:14;;;;;;;10.83;7.07;;;;;;;14.83;38.20;101983.53;5088771;28;20812;-70
2021/03/17 11:35:43;;;;;;;9.00;7.23;;;;;;;14.30;38.53;101985.44;5089652;28;20530;-70
2021/03/17 11:38:09;;;;;;;8.17;7.47;;;;;;;15.21;36.96;101982.19;5087104;28;20442;-69